Pagrindinis puslapis
METAR-TAF:

METAR-TAF

Oro uostai :

Jelivarė, Švedija

platuma: 67-09N, ilguma: 020-39E, Aukštis: 359 m

Dabartinis oras

Ataskaita buvo paskelbta 19 minutes, ne 04:50 UTC
Vėjas 4 kt iš Šiaurės/Šiaurės Vakarų, svyruoja nuo Vakarų/Šiaurės Vakarų ir Šiaurės
Temperatūra 14°C
Drėgmė 77%
Slėgis 1010 hPa
Matomumas 10 km arba daugiau
Mažai debesys ne aukštis 1300 ft

METAR: ESNG 220450Z 33004KT 300V360 9999 FEW013 14/10 Q1010

Laikas: 07:09 (05:09 UTC)

Prognozė

Ataskaita buvo paskelbta 2 valandos ir 39 minutes, ne 02:30 UTC
Prognozė galioja nuo 22 metu 03 UTC su 22 metu 12 UTC
Vėjas 5 kt iš Vakarų/Šiaurės Vakarų
Matomumas 10 km arba daugiau
nėra debesų žemiau 1500 m ir nėra kamuolinių lietaus debesų

TAF: ESNG 220230Z 2203/2212 29005KT CAVOK

Orai ataskaitas ir orų prognozės (METAR, TAF).

turimą stotys yra geltonos ir raudonos taškus žemėlapyje.

Perkelti pele per norėdami pamatyti stoties vardą.

Tada spustelėkite, norėdami matyti oro stebėjimo ir prognozės.

Norėdami pakeisti žemėlapį: spustelėkite ant žalios mygtukų su juodo kryžiaus žemyn,; žalią mygtuką su brūkšneliu, jei norite nutolinti; arba žalių rodyklių gretimoms žemėlapius.


METAR-TAF: